TimeCST,TemperatureF,Dew PointF,Humidity,Sea Level PressureIn,VisibilityMPH,Wind Direction,Wind SpeedMPH,Gust SpeedMPH,PrecipitationIn,Events,Conditions,WindDirDegrees,DateUTC
12:15 AM,23.0,19.4,86,29.96,4.0,NNW,13.8,-,N/A,,Overcast,330,2013-02-27 06:15:00
12:35 AM,23.0,19.4,86,29.95,3.0,NNW,13.8,-,N/A,,Overcast,340,2013-02-27 06:35:00
12:55 AM,23.0,19.4,86,29.95,3.0,NNW,12.7,-,N/A,,Overcast,330,2013-02-27 06:55:00
1:15 AM,23.0,19.4,86,29.94,2.5,NNW,15.0,-,N/A,,Overcast,330,2013-02-27 07:15:00
1:35 AM,23.0,19.4,86,29.95,2.5,NW,12.7,20.7,N/A,,Overcast,320,2013-02-27 07:35:00
1:55 AM,23.0,19.4,86,29.94,2.0,NW,15.0,-,N/A,,Overcast,320,2013-02-27 07:55:00
2:15 AM,23.0,19.4,86,29.93,2.5,NNW,16.1,-,N/A,,Overcast,330,2013-02-27 08:15:00
2:35 AM,23.0,19.4,86,29.94,2.5,NNW,16.1,-,N/A,,Overcast,330,2013-02-27 08:35:00
2:55 AM,23.0,19.4,86,29.94,2.5,NNW,16.1,-,N/A,,Overcast,330,2013-02-27 08:55:00
3:15 AM,23.0,19.4,86,29.94,3.0,NW,16.1,21.9,N/A,,Overcast,320,2013-02-27 09:15:00
3:35 AM,23.0,19.4,86,29.94,3.0,NNW,17.3,20.7,N/A,,Overcast,330,2013-02-27 09:35:00
3:55 AM,23.0,17.6,80,29.94,2.5,NNW,18.4,23.0,N/A,,Overcast,330,2013-02-27 09:55:00
4:15 AM,23.0,17.6,80,29.94,2.5,NNW,16.1,25.3,N/A,,Overcast,330,2013-02-27 10:15:00
4:55 AM,23.0,17.6,80,29.94,4.0,NW,19.6,-,N/A,,Overcast,320,2013-02-27 10:55:00
5:15 AM,21.2,17.6,86,29.94,5.0,NW,16.1,-,N/A,,Overcast,320,2013-02-27 11:15:00
5:35 AM,23.0,17.6,80,29.95,7.0,NW,16.1,-,N/A,,Overcast,320,2013-02-27 11:35:00
5:55 AM,23.0,17.6,80,29.95,7.0,NNW,15.0,-,N/A,,Overcast,330,2013-02-27 11:55:00
6:15 AM,23.0,17.6,80,29.96,8.0,NNW,21.9,25.3,N/A,,Overcast,330,2013-02-27 12:15:00
6:35 AM,23.0,17.6,80,29.96,9.0,NNW,19.6,25.3,N/A,,Overcast,330,2013-02-27 12:35:00
6:55 AM,23.0,17.6,80,29.96,9.0,NNW,18.4,26.5,N/A,,Overcast,330,2013-02-27 12:55:00
7:15 AM,23.0,17.6,80,29.97,8.0,NNW,18.4,-,N/A,,Partly Cloudy,330,2013-02-27 13:15:00
7:35 AM,23.0,17.6,80,29.97,9.0,NNW,19.6,24.2,N/A,,Clear,330,2013-02-27 13:35:00
7:55 AM,23.0,17.6,80,29.99,10.0,NNW,17.3,-,N/A,,Clear,330,2013-02-27 13:55:00
8:15 AM,23.0,15.8,74,29.99,10.0,NNW,16.1,25.3,N/A,,Clear,330,2013-02-27 14:15:00
8:35 AM,24.8,15.8,69,30.00,10.0,NNW,19.6,-,N/A,,Clear,330,2013-02-27 14:35:00
8:55 AM,24.8,17.6,74,30.01,10.0,NNW,17.3,27.6,N/A,,Clear,330,2013-02-27 14:55:00
9:15 AM,24.8,17.6,74,30.01,9.0,NNW,17.3,-,N/A,,Clear,330,2013-02-27 15:15:00
9:35 AM,26.6,17.6,69,30.02,10.0,NNW,17.3,27.6,N/A,,Clear,330,2013-02-27 15:35:00
9:55 AM,28.4,17.6,64,30.03,10.0,NNW,19.6,25.3,N/A,,Clear,340,2013-02-27 15:55:00
10:15 AM,28.4,19.4,69,30.02,10.0,NNW,21.9,27.6,N/A,,Clear,330,2013-02-27 16:15:00
10:55 AM,30.2,19.4,64,30.03,10.0,NW,20.7,27.6,N/A,,Clear,320,2013-02-27 16:55:00
11:15 AM,32.0,19.4,60,30.04,10.0,NNW,20.7,28.8,N/A,,Clear,340,2013-02-27 17:15:00
11:35 AM,33.8,19.4,56,30.04,10.0,NNW,21.9,28.8,N/A,,Clear,340,2013-02-27 17:35:00
11:55 AM,33.8,21.2,60,30.04,10.0,NNW,23.0,28.8,N/A,,Clear,330,2013-02-27 17:55:00
12:15 PM,33.8,21.2,60,30.06,10.0,NNW,20.7,26.5,N/A,,Clear,340,2013-02-27 18:15:00
12:35 PM,35.6,21.2,56,30.06,10.0,NNW,20.7,29.9,N/A,,Clear,330,2013-02-27 18:35:00
12:55 PM,35.6,21.2,56,30.05,10.0,NNW,24.2,29.9,N/A,,Clear,330,2013-02-27 18:55:00
1:15 PM,35.6,23.0,60,30.05,10.0,NNW,21.9,26.5,N/A,,Clear,330,2013-02-27 19:15:00
1:35 PM,35.6,23.0,60,30.05,10.0,NNW,24.2,28.8,N/A,,Clear,330,2013-02-27 19:35:00
1:55 PM,35.6,23.0,60,30.06,10.0,NNW,24.2,27.6,N/A,,Clear,330,2013-02-27 19:55:00
2:15 PM,37.4,23.0,56,30.06,10.0,NNW,21.9,-,N/A,,Clear,330,2013-02-27 20:15:00
2:35 PM,35.6,23.0,60,30.06,10.0,NW,24.2,29.9,N/A,,Clear,320,2013-02-27 20:35:00
2:55 PM,37.4,23.0,56,30.06,10.0,NNW,24.2,29.9,N/A,,Clear,330,2013-02-27 20:55:00
3:15 PM,37.4,24.8,60,30.06,10.0,NNW,17.3,24.2,N/A,,Clear,330,2013-02-27 21:15:00
3:35 PM,37.4,24.8,60,30.07,10.0,NW,21.9,25.3,N/A,,Clear,320,2013-02-27 21:35:00
3:55 PM,37.4,24.8,60,30.07,10.0,NW,20.7,-,N/A,,Clear,310,2013-02-27 21:55:00
4:15 PM,35.6,24.8,65,30.07,10.0,NW,24.2,-,N/A,,Clear,310,2013-02-27 22:15:00
4:35 PM,35.6,24.8,65,30.07,10.0,NW,20.7,-,N/A,,Clear,310,2013-02-27 22:35:00
4:55 PM,35.6,24.8,65,30.07,10.0,NW,23.0,29.9,N/A,,Clear,320,2013-02-27 22:55:00
5:15 PM,33.8,24.8,70,30.07,10.0,NW,18.4,28.8,N/A,,Clear,320,2013-02-27 23:15:00
5:35 PM,33.8,24.8,70,30.08,10.0,NW,20.7,26.5,N/A,,Clear,320,2013-02-27 23:35:00
5:55 PM,33.8,24.8,70,30.08,10.0,NW,20.7,25.3,N/A,,Clear,320,2013-02-27 23:55:00
6:15 PM,33.8,24.8,70,30.08,10.0,NW,20.7,24.2,N/A,,Clear,320,2013-02-28 00:15:00
6:35 PM,33.8,24.8,70,30.09,10.0,NW,19.6,25.3,N/A,,Clear,320,2013-02-28 00:35:00
6:55 PM,32.0,24.8,75,30.09,10.0,NW,18.4,25.3,N/A,,Clear,320,2013-02-28 00:55:00
7:15 PM,32.0,24.8,75,30.10,10.0,NW,17.3,-,N/A,,Clear,320,2013-02-28 01:15:00
7:35 PM,32.0,24.8,75,30.10,10.0,NNW,17.3,-,N/A,,Partly Cloudy,330,2013-02-28 01:35:00
8:15 PM,33.8,24.8,70,30.09,10.0,NNW,23.0,32.2,N/A,,Overcast,330,2013-02-28 02:15:00
8:35 PM,33.8,24.8,70,30.09,10.0,NNW,26.5,29.9,N/A,,Overcast,330,2013-02-28 02:35:00
8:55 PM,33.8,24.8,70,30.09,10.0,NNW,25.3,34.5,N/A,,Overcast,330,2013-02-28 02:55:00
9:15 PM,33.8,24.8,70,30.09,10.0,NNW,21.9,27.6,N/A,,Overcast,330,2013-02-28 03:15:00
9:35 PM,33.8,24.8,70,30.10,10.0,NNW,17.3,28.8,N/A,,Overcast,330,2013-02-28 03:35:00
9:55 PM,33.8,24.8,70,30.10,10.0,NNW,20.7,26.5,N/A,,Overcast,330,2013-02-28 03:55:00
10:15 PM,33.8,24.8,70,30.11,10.0,NNW,19.6,28.8,N/A,,Overcast,330,2013-02-28 04:15:00
10:35 PM,32.0,24.8,75,30.11,10.0,NNW,25.3,-,N/A,,Overcast,330,2013-02-28 04:35:00
10:55 PM,32.0,24.8,75,30.11,10.0,NNW,17.3,-,N/A,,Overcast,330,2013-02-28 04:55:00
11:15 PM,32.0,24.8,75,30.12,10.0,NNW,15.0,21.9,N/A,,Overcast,330,2013-02-28 05:15:00
11:35 PM,32.0,24.8,75,30.12,10.0,NNW,17.3,26.5,N/A,,Overcast,330,2013-02-28 05:35:00